sensor_id;sensor_type;location;lat;lon;timestamp;P1;durP1;ratioP1;P2;durP2;ratioP2
80985;SDS011;70451;51.226;6.412;2023-07-13T00:01:42;3.97;;;1.15;;
80985;SDS011;70451;51.226;6.412;2023-07-13T00:03:57;2.17;;;1.30;;
80985;SDS011;70451;51.226;6.412;2023-07-13T00:06:13;2.10;;;1.25;;
80985;SDS011;70451;51.226;6.412;2023-07-13T00:08:30;2.78;;;1.33;;
80985;SDS011;70451;51.226;6.412;2023-07-13T00:10:47;3.97;;;1.33;;
80985;SDS011;70451;51.226;6.412;2023-07-13T00:13:03;5.45;;;1.50;;
80985;SDS011;70451;51.226;6.412;2023-07-13T00:15:21;2.58;;;1.42;;
80985;SDS011;70451;51.226;6.412;2023-07-13T00:17:39;4.68;;;1.42;;
80985;SDS011;70451;51.226;6.412;2023-07-13T00:19:55;2.20;;;1.23;;
80985;SDS011;70451;51.226;6.412;2023-07-13T00:22:11;3.28;;;1.42;;
80985;SDS011;70451;51.226;6.412;2023-07-13T00:24:27;4.65;;;1.40;;
80985;SDS011;70451;51.226;6.412;2023-07-13T00:26:42;2.47;;;1.40;;
80985;SDS011;70451;51.226;6.412;2023-07-13T00:29:00;2.15;;;1.17;;
80985;SDS011;70451;51.226;6.412;2023-07-13T00:31:16;3.20;;;1.60;;
80985;SDS011;70451;51.226;6.412;2023-07-13T00:33:31;1.63;;;1.08;;
80985;SDS011;70451;51.226;6.412;2023-07-13T00:35:48;3.20;;;1.42;;
80985;SDS011;70451;51.226;6.412;2023-07-13T00:38:03;3.05;;;1.05;;
80985;SDS011;70451;51.226;6.412;2023-07-13T00:40:19;3.70;;;1.38;;
80985;SDS011;70451;51.226;6.412;2023-07-13T00:42:36;2.33;;;1.33;;
80985;SDS011;70451;51.226;6.412;2023-07-13T00:47:28;2.13;;;1.50;;
80985;SDS011;70451;51.226;6.412;2023-07-13T00:49:44;3.40;;;1.38;;
80985;SDS011;70451;51.226;6.412;2023-07-13T00:52:01;4.50;;;1.17;;
80985;SDS011;70451;51.226;6.412;2023-07-13T00:54:23;3.35;;;1.23;;
80985;SDS011;70451;51.226;6.412;2023-07-13T00:56:43;3.38;;;1.13;;
80985;SDS011;70451;51.226;6.412;2023-07-13T00:59:02;2.92;;;1.52;;
80985;SDS011;70451;51.226;6.412;2023-07-13T01:03:38;3.38;;;1.55;;
80985;SDS011;70451;51.226;6.412;2023-07-13T01:05:55;2.50;;;1.20;;
80985;SDS011;70451;51.226;6.412;2023-07-13T01:08:10;1.98;;;1.15;;
80985;SDS011;70451;51.226;6.412;2023-07-13T01:10:26;2.55;;;1.40;;
80985;SDS011;70451;51.226;6.412;2023-07-13T01:12:42;2.65;;;1.17;;
80985;SDS011;70451;51.226;6.412;2023-07-13T01:14:58;1.80;;;1.20;;
80985;SDS011;70451;51.226;6.412;2023-07-13T01:17:15;2.53;;;1.35;;
80985;SDS011;70451;51.226;6.412;2023-07-13T01:21:54;1.85;;;1.10;;
80985;SDS011;70451;51.226;6.412;2023-07-13T01:24:10;2.63;;;1.48;;
80985;SDS011;70451;51.226;6.412;2023-07-13T01:26:25;3.05;;;1.20;;
80985;SDS011;70451;51.226;6.412;2023-07-13T01:28:41;3.42;;;1.30;;
80985;SDS011;70451;51.226;6.412;2023-07-13T01:30:58;1.98;;;1.50;;
80985;SDS011;70451;51.226;6.412;2023-07-13T01:33:14;1.63;;;1.23;;
80985;SDS011;70451;51.226;6.412;2023-07-13T01:35:31;1.85;;;1.40;;
80985;SDS011;70451;51.226;6.412;2023-07-13T01:37:46;2.92;;;1.40;;
80985;SDS011;70451;51.226;6.412;2023-07-13T01:40:03;5.38;;;1.30;;
80985;SDS011;70451;51.226;6.412;2023-07-13T01:42:19;2.08;;;1.10;;
80985;SDS011;70451;51.226;6.412;2023-07-13T01:44:35;4.00;;;1.55;;
80985;SDS011;70451;51.226;6.412;2023-07-13T01:46:50;2.60;;;1.38;;
80985;SDS011;70451;51.226;6.412;2023-07-13T01:49:05;3.60;;;1.40;;
80985;SDS011;70451;51.226;6.412;2023-07-13T01:51:21;3.80;;;1.23;;
80985;SDS011;70451;51.226;6.412;2023-07-13T01:53:36;1.90;;;1.33;;
80985;SDS011;70451;51.226;6.412;2023-07-13T01:55:51;3.13;;;1.27;;
80985;SDS011;70451;51.226;6.412;2023-07-13T01:58:07;4.10;;;1.30;;
80985;SDS011;70451;51.226;6.412;2023-07-13T02:00:22;2.00;;;1.15;;
80985;SDS011;70451;51.226;6.412;2023-07-13T02:02:38;3.70;;;1.17;;
80985;SDS011;70451;51.226;6.412;2023-07-13T02:04:53;2.00;;;1.02;;
80985;SDS011;70451;51.226;6.412;2023-07-13T02:07:09;2.80;;;1.38;;
80985;SDS011;70451;51.226;6.412;2023-07-13T02:09:24;5.13;;;1.30;;
80985;SDS011;70451;51.226;6.412;2023-07-13T02:11:39;2.20;;;1.20;;
80985;SDS011;70451;51.226;6.412;2023-07-13T02:13:55;3.22;;;1.00;;
80985;SDS011;70451;51.226;6.412;2023-07-13T02:16:10;2.33;;;1.02;;
80985;SDS011;70451;51.226;6.412;2023-07-13T02:18:25;1.90;;;1.38;;
80985;SDS011;70451;51.226;6.412;2023-07-13T02:20:41;3.35;;;1.42;;
80985;SDS011;70451;51.226;6.412;2023-07-13T02:22:56;3.97;;;1.33;;
80985;SDS011;70451;51.226;6.412;2023-07-13T02:25:11;2.95;;;1.40;;
80985;SDS011;70451;51.226;6.412;2023-07-13T02:27:27;2.22;;;1.20;;
80985;SDS011;70451;51.226;6.412;2023-07-13T02:29:43;2.92;;;1.20;;
80985;SDS011;70451;51.226;6.412;2023-07-13T02:31:58;4.70;;;1.35;;
80985;SDS011;70451;51.226;6.412;2023-07-13T02:34:13;1.50;;;1.02;;
80985;SDS011;70451;51.226;6.412;2023-07-13T02:36:29;3.30;;;1.48;;
80985;SDS011;70451;51.226;6.412;2023-07-13T02:38:45;2.35;;;1.40;;
80985;SDS011;70451;51.226;6.412;2023-07-13T02:41:00;1.90;;;1.33;;
80985;SDS011;70451;51.226;6.412;2023-07-13T02:43:16;3.47;;;1.27;;
80985;SDS011;70451;51.226;6.412;2023-07-13T02:45:31;2.78;;;1.30;;
80985;SDS011;70451;51.226;6.412;2023-07-13T02:47:47;3.80;;;1.45;;
80985;SDS011;70451;51.226;6.412;2023-07-13T02:50:02;5.28;;;1.83;;
80985;SDS011;70451;51.226;6.412;2023-07-13T02:52:18;2.30;;;1.25;;
80985;SDS011;70451;51.226;6.412;2023-07-13T02:54:33;2.58;;;1.38;;
80985;SDS011;70451;51.226;6.412;2023-07-13T02:56:48;2.33;;;1.35;;
80985;SDS011;70451;51.226;6.412;2023-07-13T02:59:04;3.50;;;1.42;;
80985;SDS011;70451;51.226;6.412;2023-07-13T03:01:19;2.13;;;1.30;;
80985;SDS011;70451;51.226;6.412;2023-07-13T03:03:36;4.20;;;1.33;;
80985;SDS011;70451;51.226;6.412;2023-07-13T03:05:58;5.45;;;1.60;;
80985;SDS011;70451;51.226;6.412;2023-07-13T03:08:18;3.80;;;1.60;;
80985;SDS011;70451;51.226;6.412;2023-07-13T03:10:33;3.40;;;1.30;;
80985;SDS011;70451;51.226;6.412;2023-07-13T03:12:49;1.50;;;1.15;;
80985;SDS011;70451;51.226;6.412;2023-07-13T03:15:04;1.65;;;1.42;;
80985;SDS011;70451;51.226;6.412;2023-07-13T03:17:20;4.40;;;1.55;;
80985;SDS011;70451;51.226;6.412;2023-07-13T03:19:35;1.88;;;1.23;;
80985;SDS011;70451;51.226;6.412;2023-07-13T03:21:51;2.95;;;1.60;;
80985;SDS011;70451;51.226;6.412;2023-07-13T03:24:06;2.22;;;1.33;;
80985;SDS011;70451;51.226;6.412;2023-07-13T03:26:22;2.60;;;1.30;;
80985;SDS011;70451;51.226;6.412;2023-07-13T03:28:37;3.70;;;1.40;;
80985;SDS011;70451;51.226;6.412;2023-07-13T03:30:59;2.80;;;1.70;;
80985;SDS011;70451;51.226;6.412;2023-07-13T03:33:25;3.60;;;1.48;;
80985;SDS011;70451;51.226;6.412;2023-07-13T03:35:40;3.63;;;1.40;;
80985;SDS011;70451;51.226;6.412;2023-07-13T03:37:56;2.47;;;1.50;;
80985;SDS011;70451;51.226;6.412;2023-07-13T03:40:13;5.82;;;1.50;;
80985;SDS011;70451;51.226;6.412;2023-07-13T03:42:28;5.45;;;1.40;;
80985;SDS011;70451;51.226;6.412;2023-07-13T03:44:44;4.95;;;1.52;;
80985;SDS011;70451;51.226;6.412;2023-07-13T03:47:05;3.17;;;1.10;;
80985;SDS011;70451;51.226;6.412;2023-07-13T03:49:21;3.15;;;1.83;;
80985;SDS011;70451;51.226;6.412;2023-07-13T03:51:36;4.25;;;1.70;;
80985;SDS011;70451;51.226;6.412;2023-07-13T03:53:52;5.43;;;1.60;;
80985;SDS011;70451;51.226;6.412;2023-07-13T03:56:07;2.42;;;1.23;;
80985;SDS011;70451;51.226;6.412;2023-07-13T04:00:41;4.00;;;1.27;;
80985;SDS011;70451;51.226;6.412;2023-07-13T04:02:57;6.05;;;1.45;;
80985;SDS011;70451;51.226;6.412;2023-07-13T04:05:12;3.70;;;1.40;;
80985;SDS011;70451;51.226;6.412;2023-07-13T04:07:27;6.07;;;1.85;;
80985;SDS011;70451;51.226;6.412;2023-07-13T04:09:43;5.60;;;1.52;;
80985;SDS011;70451;51.226;6.412;2023-07-13T04:11:58;4.00;;;1.40;;
80985;SDS011;70451;51.226;6.412;2023-07-13T04:14:13;3.70;;;1.52;;
80985;SDS011;70451;51.226;6.412;2023-07-13T04:16:28;3.97;;;1.48;;
80985;SDS011;70451;51.226;6.412;2023-07-13T04:18:44;4.65;;;1.55;;
80985;SDS011;70451;51.226;6.412;2023-07-13T04:21:01;2.22;;;1.50;;
80985;SDS011;70451;51.226;6.412;2023-07-13T04:23:16;4.60;;;1.55;;
80985;SDS011;70451;51.226;6.412;2023-07-13T04:25:32;3.60;;;1.20;;
80985;SDS011;70451;51.226;6.412;2023-07-13T04:27:47;3.20;;;1.50;;
80985;SDS011;70451;51.226;6.412;2023-07-13T04:30:03;3.88;;;1.52;;
80985;SDS011;70451;51.226;6.412;2023-07-13T04:32:18;4.43;;;1.67;;
80985;SDS011;70451;51.226;6.412;2023-07-13T04:34:33;3.92;;;1.50;;
80985;SDS011;70451;51.226;6.412;2023-07-13T04:36:49;3.38;;;1.85;;
80985;SDS011;70451;51.226;6.412;2023-07-13T04:39:05;3.17;;;2.17;;
80985;SDS011;70451;51.226;6.412;2023-07-13T04:41:21;3.35;;;1.80;;
80985;SDS011;70451;51.226;6.412;2023-07-13T04:43:37;4.68;;;1.38;;
80985;SDS011;70451;51.226;6.412;2023-07-13T04:45:52;3.58;;;1.67;;
80985;SDS011;70451;51.226;6.412;2023-07-13T04:48:08;6.78;;;2.25;;
80985;SDS011;70451;51.226;6.412;2023-07-13T04:50:23;4.38;;;1.70;;
80985;SDS011;70451;51.226;6.412;2023-07-13T04:52:39;4.50;;;1.77;;
80985;SDS011;70451;51.226;6.412;2023-07-13T04:54:54;7.57;;;2.13;;
80985;SDS011;70451;51.226;6.412;2023-07-13T04:57:09;2.78;;;1.60;;
80985;SDS011;70451;51.226;6.412;2023-07-13T04:59:25;3.35;;;1.48;;
80985;SDS011;70451;51.226;6.412;2023-07-13T05:01:40;4.72;;;1.40;;
80985;SDS011;70451;51.226;6.412;2023-07-13T05:03:56;2.53;;;1.42;;
80985;SDS011;70451;51.226;6.412;2023-07-13T05:06:13;3.47;;;1.60;;
80985;SDS011;70451;51.226;6.412;2023-07-13T05:08:29;5.05;;;1.88;;
80985;SDS011;70451;51.226;6.412;2023-07-13T05:10:44;5.32;;;1.55;;
80985;SDS011;70451;51.226;6.412;2023-07-13T05:12:59;3.97;;;1.60;;
80985;SDS011;70451;51.226;6.412;2023-07-13T05:15:15;3.53;;;1.70;;
80985;SDS011;70451;51.226;6.412;2023-07-13T05:17:30;3.33;;;1.60;;
80985;SDS011;70451;51.226;6.412;2023-07-13T05:19:46;2.58;;;1.73;;
80985;SDS011;70451;51.226;6.412;2023-07-13T05:22:02;3.97;;;1.50;;
80985;SDS011;70451;51.226;6.412;2023-07-13T05:24:19;4.22;;;1.67;;
80985;SDS011;70451;51.226;6.412;2023-07-13T05:26:34;4.00;;;1.80;;
80985;SDS011;70451;51.226;6.412;2023-07-13T05:28:49;2.60;;;1.45;;
80985;SDS011;70451;51.226;6.412;2023-07-13T05:31:06;2.75;;;1.48;;
80985;SDS011;70451;51.226;6.412;2023-07-13T05:33:23;2.80;;;1.48;;
80985;SDS011;70451;51.226;6.412;2023-07-13T05:35:39;5.70;;;1.88;;
80985;SDS011;70451;51.226;6.412;2023-07-13T05:37:55;5.40;;;1.92;;
80985;SDS011;70451;51.226;6.412;2023-07-13T05:40:10;6.65;;;1.85;;
80985;SDS011;70451;51.226;6.412;2023-07-13T05:42:25;4.32;;;1.98;;
80985;SDS011;70451;51.226;6.412;2023-07-13T05:44:41;3.85;;;1.80;;
80985;SDS011;70451;51.226;6.412;2023-07-13T05:46:56;3.00;;;1.75;;
80985;SDS011;70451;51.226;6.412;2023-07-13T05:49:12;5.45;;;2.35;;
80985;SDS011;70451;51.226;6.412;2023-07-13T05:51:27;5.05;;;1.98;;
80985;SDS011;70451;51.226;6.412;2023-07-13T05:53:42;6.20;;;2.00;;
80985;SDS011;70451;51.226;6.412;2023-07-13T05:55:57;2.28;;;1.83;;
80985;SDS011;70451;51.226;6.412;2023-07-13T05:58:13;5.40;;;3.00;;
80985;SDS011;70451;51.226;6.412;2023-07-13T06:00:28;6.72;;;2.33;;
80985;SDS011;70451;51.226;6.412;2023-07-13T06:02:44;6.10;;;2.60;;
80985;SDS011;70451;51.226;6.412;2023-07-13T06:04:59;5.93;;;2.15;;
80985;SDS011;70451;51.226;6.412;2023-07-13T06:07:14;5.90;;;2.38;;
80985;SDS011;70451;51.226;6.412;2023-07-13T06:09:30;7.50;;;2.20;;
80985;SDS011;70451;51.226;6.412;2023-07-13T06:11:45;6.75;;;2.83;;
80985;SDS011;70451;51.226;6.412;2023-07-13T06:14:00;5.45;;;2.35;;
80985;SDS011;70451;51.226;6.412;2023-07-13T06:16:16;6.78;;;2.40;;
80985;SDS011;70451;51.226;6.412;2023-07-13T06:18:32;5.00;;;2.25;;
80985;SDS011;70451;51.226;6.412;2023-07-13T06:20:48;4.97;;;2.47;;
80985;SDS011;70451;51.226;6.412;2023-07-13T06:23:04;4.90;;;2.80;;
80985;SDS011;70451;51.226;6.412;2023-07-13T06:25:19;8.30;;;2.78;;
80985;SDS011;70451;51.226;6.412;2023-07-13T06:27:34;6.28;;;2.53;;
80985;SDS011;70451;51.226;6.412;2023-07-13T06:29:50;7.18;;;2.72;;
80985;SDS011;70451;51.226;6.412;2023-07-13T06:32:05;6.30;;;2.50;;
80985;SDS011;70451;51.226;6.412;2023-07-13T06:34:21;7.43;;;2.50;;
80985;SDS011;70451;51.226;6.412;2023-07-13T06:36:36;3.85;;;2.40;;
80985;SDS011;70451;51.226;6.412;2023-07-13T06:38:53;9.13;;;3.03;;
80985;SDS011;70451;51.226;6.412;2023-07-13T06:41:08;6.82;;;2.42;;
80985;SDS011;70451;51.226;6.412;2023-07-13T06:43:24;9.00;;;2.72;;
80985;SDS011;70451;51.226;6.412;2023-07-13T06:45:44;5.15;;;2.85;;
80985;SDS011;70451;51.226;6.412;2023-07-13T06:48:04;4.55;;;2.97;;
80985;SDS011;70451;51.226;6.412;2023-07-13T06:50:20;12.15;;;3.10;;
80985;SDS011;70451;51.226;6.412;2023-07-13T06:52:35;5.15;;;2.58;;
80985;SDS011;70451;51.226;6.412;2023-07-13T06:54:50;7.75;;;2.85;;
80985;SDS011;70451;51.226;6.412;2023-07-13T06:57:06;6.00;;;2.83;;
80985;SDS011;70451;51.226;6.412;2023-07-13T06:59:22;5.35;;;2.55;;
80985;SDS011;70451;51.226;6.412;2023-07-13T07:01:37;6.97;;;3.00;;
80985;SDS011;70451;51.226;6.412;2023-07-13T07:03:52;5.75;;;3.00;;
80985;SDS011;70451;51.226;6.412;2023-07-13T07:06:18;11.02;;;2.50;;
80985;SDS011;70451;51.226;6.412;2023-07-13T07:08:34;6.55;;;2.83;;
80985;SDS011;70451;51.226;6.412;2023-07-13T07:10:50;5.35;;;2.63;;
80985;SDS011;70451;51.226;6.412;2023-07-13T07:13:08;6.05;;;2.55;;
80985;SDS011;70451;51.226;6.412;2023-07-13T07:15:24;5.47;;;2.53;;
80985;SDS011;70451;51.226;6.412;2023-07-13T07:17:40;5.13;;;2.50;;
80985;SDS011;70451;51.226;6.412;2023-07-13T07:19:55;4.68;;;2.85;;
80985;SDS011;70451;51.226;6.412;2023-07-13T07:22:11;8.05;;;2.95;;
80985;SDS011;70451;51.226;6.412;2023-07-13T07:24:26;5.55;;;2.60;;
80985;SDS011;70451;51.226;6.412;2023-07-13T07:26:42;5.80;;;3.08;;
80985;SDS011;70451;51.226;6.412;2023-07-13T07:28:57;4.95;;;2.45;;
80985;SDS011;70451;51.226;6.412;2023-07-13T07:31:12;4.60;;;2.67;;
80985;SDS011;70451;51.226;6.412;2023-07-13T07:33:27;6.30;;;2.60;;
80985;SDS011;70451;51.226;6.412;2023-07-13T07:35:43;7.43;;;2.60;;
80985;SDS011;70451;51.226;6.412;2023-07-13T07:37:58;9.07;;;3.47;;
80985;SDS011;70451;51.226;6.412;2023-07-13T07:40:13;4.90;;;2.75;;
80985;SDS011;70451;51.226;6.412;2023-07-13T07:42:29;7.78;;;3.00;;
80985;SDS011;70451;51.226;6.412;2023-07-13T07:44:44;8.93;;;3.00;;
80985;SDS011;70451;51.226;6.412;2023-07-13T07:47:00;6.55;;;2.55;;
80985;SDS011;70451;51.226;6.412;2023-07-13T07:49:16;5.45;;;2.92;;
80985;SDS011;70451;51.226;6.412;2023-07-13T07:51:31;5.88;;;2.60;;
80985;SDS011;70451;51.226;6.412;2023-07-13T07:53:47;5.28;;;2.33;;
80985;SDS011;70451;51.226;6.412;2023-07-13T07:56:03;6.20;;;2.70;;
80985;SDS011;70451;51.226;6.412;2023-07-13T07:58:18;6.10;;;2.42;;
80985;SDS011;70451;51.226;6.412;2023-07-13T08:00:34;5.65;;;2.63;;
80985;SDS011;70451;51.226;6.412;2023-07-13T08:02:50;6.43;;;2.55;;
80985;SDS011;70451;51.226;6.412;2023-07-13T08:05:05;6.55;;;2.70;;
80985;SDS011;70451;51.226;6.412;2023-07-13T08:07:21;6.63;;;2.78;;
80985;SDS011;70451;51.226;6.412;2023-07-13T08:09:37;5.72;;;2.42;;
80985;SDS011;70451;51.226;6.412;2023-07-13T08:11:52;3.90;;;2.38;;
80985;SDS011;70451;51.226;6.412;2023-07-13T08:14:09;6.97;;;2.70;;
80985;SDS011;70451;51.226;6.412;2023-07-13T08:16:25;6.35;;;2.15;;
80985;SDS011;70451;51.226;6.412;2023-07-13T08:18:41;5.38;;;2.60;;
80985;SDS011;70451;51.226;6.412;2023-07-13T08:20:57;5.60;;;2.80;;
80985;SDS011;70451;51.226;6.412;2023-07-13T08:23:13;7.65;;;2.60;;
80985;SDS011;70451;51.226;6.412;2023-07-13T08:25:28;5.57;;;2.67;;
80985;SDS011;70451;51.226;6.412;2023-07-13T08:27:44;6.65;;;2.97;;
80985;SDS011;70451;51.226;6.412;2023-07-13T08:29:59;6.07;;;3.10;;
80985;SDS011;70451;51.226;6.412;2023-07-13T08:32:14;7.40;;;3.20;;
80985;SDS011;70451;51.226;6.412;2023-07-13T08:34:30;4.75;;;2.80;;
80985;SDS011;70451;51.226;6.412;2023-07-13T08:36:45;7.60;;;2.97;;
80985;SDS011;70451;51.226;6.412;2023-07-13T08:39:00;6.63;;;2.45;;
80985;SDS011;70451;51.226;6.412;2023-07-13T08:41:17;8.15;;;2.75;;
80985;SDS011;70451;51.226;6.412;2023-07-13T08:43:35;5.03;;;2.47;;
80985;SDS011;70451;51.226;6.412;2023-07-13T08:46:08;6.03;;;2.63;;
80985;SDS011;70451;51.226;6.412;2023-07-13T08:48:31;9.32;;;2.83;;
80985;SDS011;70451;51.226;6.412;2023-07-13T08:51:00;8.25;;;2.80;;
80985;SDS011;70451;51.226;6.412;2023-07-13T08:53:24;6.15;;;2.63;;
80985;SDS011;70451;51.226;6.412;2023-07-13T08:55:49;5.65;;;2.38;;
80985;SDS011;70451;51.226;6.412;2023-07-13T08:58:13;8.07;;;2.83;;
80985;SDS011;70451;51.226;6.412;2023-07-13T09:00:49;7.53;;;2.70;;
80985;SDS011;70451;51.226;6.412;2023-07-13T09:03:24;5.85;;;2.53;;
80985;SDS011;70451;51.226;6.412;2023-07-13T09:05:45;6.63;;;2.60;;
80985;SDS011;70451;51.226;6.412;2023-07-13T09:08:23;5.85;;;2.53;;
80985;SDS011;70451;51.226;6.412;2023-07-13T09:16:01;6.38;;;2.42;;
80985;SDS011;70451;51.226;6.412;2023-07-13T09:21:00;6.90;;;2.60;;
80985;SDS011;70451;51.226;6.412;2023-07-13T09:23:21;6.60;;;2.53;;
80985;SDS011;70451;51.226;6.412;2023-07-13T09:25:39;5.30;;;2.25;;
80985;SDS011;70451;51.226;6.412;2023-07-13T09:27:59;4.40;;;2.92;;
80985;SDS011;70451;51.226;6.412;2023-07-13T09:30:27;6.32;;;2.45;;
80985;SDS011;70451;51.226;6.412;2023-07-13T09:32:51;5.60;;;2.38;;
80985;SDS011;70451;51.226;6.412;2023-07-13T09:35:11;7.82;;;2.47;;
80985;SDS011;70451;51.226;6.412;2023-07-13T09:37:31;6.57;;;2.40;;
80985;SDS011;70451;51.226;6.412;2023-07-13T09:39:47;3.80;;;2.38;;
80985;SDS011;70451;51.226;6.412;2023-07-13T09:42:20;6.75;;;2.45;;
80985;SDS011;70451;51.226;6.412;2023-07-13T09:44:38;6.53;;;2.30;;
80985;SDS011;70451;51.226;6.412;2023-07-13T09:47:28;4.80;;;2.17;;
80985;SDS011;70451;51.226;6.412;2023-07-13T09:49:44;5.07;;;2.50;;
80985;SDS011;70451;51.226;6.412;2023-07-13T09:52:10;6.22;;;2.42;;
80985;SDS011;70451;51.226;6.412;2023-07-13T09:54:27;4.47;;;2.10;;
80985;SDS011;70451;51.226;6.412;2023-07-13T09:56:42;5.30;;;2.65;;
80985;SDS011;70451;51.226;6.412;2023-07-13T09:58:57;5.03;;;2.42;;
80985;SDS011;70451;51.226;6.412;2023-07-13T10:01:13;5.68;;;2.40;;
80985;SDS011;70451;51.226;6.412;2023-07-13T10:03:29;4.28;;;2.03;;
80985;SDS011;70451;51.226;6.412;2023-07-13T10:05:52;4.72;;;2.53;;
80985;SDS011;70451;51.226;6.412;2023-07-13T10:08:19;5.53;;;2.40;;
80985;SDS011;70451;51.226;6.412;2023-07-13T10:10:37;5.22;;;2.45;;
80985;SDS011;70451;51.226;6.412;2023-07-13T10:12:52;6.22;;;2.17;;
80985;SDS011;70451;51.226;6.412;2023-07-13T10:15:10;4.45;;;2.03;;
80985;SDS011;70451;51.226;6.412;2023-07-13T10:17:31;6.50;;;2.80;;
80985;SDS011;70451;51.226;6.412;2023-07-13T10:19:47;9.02;;;2.35;;
80985;SDS011;70451;51.226;6.412;2023-07-13T10:22:10;5.05;;;2.08;;
80985;SDS011;70451;51.226;6.412;2023-07-13T10:24:39;3.25;;;1.95;;
80985;SDS011;70451;51.226;6.412;2023-07-13T10:26:56;3.65;;;2.28;;
80985;SDS011;70451;51.226;6.412;2023-07-13T10:29:17;4.05;;;2.13;;
80985;SDS011;70451;51.226;6.412;2023-07-13T10:31:34;3.97;;;2.17;;
80985;SDS011;70451;51.226;6.412;2023-07-13T10:33:53;3.70;;;1.77;;
80985;SDS011;70451;51.226;6.412;2023-07-13T10:36:13;6.40;;;2.10;;
80985;SDS011;70451;51.226;6.412;2023-07-13T10:38:38;3.25;;;2.00;;
80985;SDS011;70451;51.226;6.412;2023-07-13T10:43:19;4.18;;;2.00;;
80985;SDS011;70451;51.226;6.412;2023-07-13T10:45:39;5.65;;;2.03;;
80985;SDS011;70451;51.226;6.412;2023-07-13T10:47:55;3.75;;;1.73;;
80985;SDS011;70451;51.226;6.412;2023-07-13T10:50:18;4.53;;;1.80;;
80985;SDS011;70451;51.226;6.412;2023-07-13T10:55:54;5.30;;;2.00;;
80985;SDS011;70451;51.226;6.412;2023-07-13T11:00:32;5.45;;;2.13;;
80985;SDS011;70451;51.226;6.412;2023-07-13T11:02:58;3.70;;;1.77;;
80985;SDS011;70451;51.226;6.412;2023-07-13T11:05:25;3.38;;;1.95;;
80985;SDS011;70451;51.226;6.412;2023-07-13T11:07:54;3.63;;;2.03;;
80985;SDS011;70451;51.226;6.412;2023-07-13T11:10:48;5.80;;;1.98;;
80985;SDS011;70451;51.226;6.412;2023-07-13T11:13:27;4.50;;;2.00;;
80985;SDS011;70451;51.226;6.412;2023-07-13T11:16:13;4.82;;;2.03;;
80985;SDS011;70451;51.226;6.412;2023-07-13T11:21:21;3.83;;;1.65;;
80985;SDS011;70451;51.226;6.412;2023-07-13T11:23:41;4.18;;;1.70;;
80985;SDS011;70451;51.226;6.412;2023-07-13T11:26:00;2.30;;;1.60;;
80985;SDS011;70451;51.226;6.412;2023-07-13T11:28:17;3.25;;;1.70;;
80985;SDS011;70451;51.226;6.412;2023-07-13T11:30:47;2.60;;;1.50;;
80985;SDS011;70451;51.226;6.412;2023-07-13T11:35:36;3.05;;;1.50;;
80985;SDS011;70451;51.226;6.412;2023-07-13T11:37:55;3.25;;;1.80;;
80985;SDS011;70451;51.226;6.412;2023-07-13T11:40:14;3.88;;;1.83;;
80985;SDS011;70451;51.226;6.412;2023-07-13T11:42:30;3.50;;;1.83;;
80985;SDS011;70451;51.226;6.412;2023-07-13T11:44:47;5.65;;;2.00;;
80985;SDS011;70451;51.226;6.412;2023-07-13T11:47:10;2.53;;;1.70;;
80985;SDS011;70451;51.226;6.412;2023-07-13T11:49:32;2.53;;;1.67;;
80985;SDS011;70451;51.226;6.412;2023-07-13T11:51:59;4.68;;;1.80;;
80985;SDS011;70451;51.226;6.412;2023-07-13T11:54:20;3.35;;;1.50;;
80985;SDS011;70451;51.226;6.412;2023-07-13T11:56:41;3.60;;;1.42;;
80985;SDS011;70451;51.226;6.412;2023-07-13T11:58:57;5.95;;;1.85;;
80985;SDS011;70451;51.226;6.412;2023-07-13T12:01:17;3.28;;;1.58;;
80985;SDS011;70451;51.226;6.412;2023-07-13T12:03:37;5.03;;;1.73;;
80985;SDS011;70451;51.226;6.412;2023-07-13T12:05:55;3.10;;;1.52;;
80985;SDS011;70451;51.226;6.412;2023-07-13T12:08:15;3.90;;;1.75;;
80985;SDS011;70451;51.226;6.412;2023-07-13T12:10:33;3.67;;;1.77;;
80985;SDS011;70451;51.226;6.412;2023-07-13T12:13:01;3.25;;;1.40;;
80985;SDS011;70451;51.226;6.412;2023-07-13T12:15:18;3.95;;;1.55;;
80985;SDS011;70451;51.226;6.412;2023-07-13T12:17:34;3.65;;;1.35;;
80985;SDS011;70451;51.226;6.412;2023-07-13T12:19:50;3.10;;;1.80;;
80985;SDS011;70451;51.226;6.412;2023-07-13T12:22:08;3.85;;;1.55;;
80985;SDS011;70451;51.226;6.412;2023-07-13T12:24:26;2.83;;;1.33;;
80985;SDS011;70451;51.226;6.412;2023-07-13T12:26:43;4.40;;;1.60;;
80985;SDS011;70451;51.226;6.412;2023-07-13T12:28:59;3.25;;;1.70;;
80985;SDS011;70451;51.226;6.412;2023-07-13T12:33:45;2.30;;;1.52;;
80985;SDS011;70451;51.226;6.412;2023-07-13T12:36:00;3.92;;;1.50;;
80985;SDS011;70451;51.226;6.412;2023-07-13T12:38:18;3.20;;;1.33;;
80985;SDS011;70451;51.226;6.412;2023-07-13T12:40:37;3.47;;;1.70;;
80985;SDS011;70451;51.226;6.412;2023-07-13T12:42:53;2.22;;;1.45;;
80985;SDS011;70451;51.226;6.412;2023-07-13T12:45:21;3.45;;;1.33;;
80985;SDS011;70451;51.226;6.412;2023-07-13T12:47:39;4.05;;;1.50;;
80985;SDS011;70451;51.226;6.412;2023-07-13T12:49:57;3.80;;;1.55;;
80985;SDS011;70451;51.226;6.412;2023-07-13T12:52:15;3.28;;;1.50;;
80985;SDS011;70451;51.226;6.412;2023-07-13T12:54:33;2.53;;;1.50;;
80985;SDS011;70451;51.226;6.412;2023-07-13T12:56:49;4.60;;;1.60;;
80985;SDS011;70451;51.226;6.412;2023-07-13T12:59:08;2.55;;;1.50;;
80985;SDS011;70451;51.226;6.412;2023-07-13T13:01:34;2.60;;;1.63;;
80985;SDS011;70451;51.226;6.412;2023-07-13T13:03:52;1.77;;;1.45;;
80985;SDS011;70451;51.226;6.412;2023-07-13T13:08:35;3.03;;;1.65;;
80985;SDS011;70451;51.226;6.412;2023-07-13T13:10:51;3.63;;;1.70;;
80985;SDS011;70451;51.226;6.412;2023-07-13T13:13:07;4.40;;;1.55;;
80985;SDS011;70451;51.226;6.412;2023-07-13T13:15:23;3.08;;;1.50;;
80985;SDS011;70451;51.226;6.412;2023-07-13T13:17:39;2.70;;;1.50;;
80985;SDS011;70451;51.226;6.412;2023-07-13T13:19:55;3.65;;;1.42;;
80985;SDS011;70451;51.226;6.412;2023-07-13T13:22:10;3.90;;;1.67;;
80985;SDS011;70451;51.226;6.412;2023-07-13T13:24:26;4.53;;;1.52;;
80985;SDS011;70451;51.226;6.412;2023-07-13T13:26:44;3.25;;;1.80;;
80985;SDS011;70451;51.226;6.412;2023-07-13T13:29:00;4.10;;;1.40;;
80985;SDS011;70451;51.226;6.412;2023-07-13T13:31:15;2.63;;;1.67;;
80985;SDS011;70451;51.226;6.412;2023-07-13T13:33:31;3.05;;;1.90;;
80985;SDS011;70451;51.226;6.412;2023-07-13T13:35:46;2.90;;;1.70;;
80985;SDS011;70451;51.226;6.412;2023-07-13T13:38:01;3.88;;;1.52;;
80985;SDS011;70451;51.226;6.412;2023-07-13T13:40:18;3.05;;;1.70;;
80985;SDS011;70451;51.226;6.412;2023-07-13T13:42:35;4.93;;;1.80;;
80985;SDS011;70451;51.226;6.412;2023-07-13T13:44:50;5.88;;;2.00;;
80985;SDS011;70451;51.226;6.412;2023-07-13T13:47:07;1.90;;;1.70;;
80985;SDS011;70451;51.226;6.412;2023-07-13T13:51:52;2.53;;;1.60;;
80985;SDS011;70451;51.226;6.412;2023-07-13T13:54:14;3.50;;;1.63;;
80985;SDS011;70451;51.226;6.412;2023-07-13T13:56:31;4.47;;;2.35;;
80985;SDS011;70451;51.226;6.412;2023-07-13T13:58:48;2.33;;;1.60;;
80985;SDS011;70451;51.226;6.412;2023-07-13T14:01:03;4.95;;;1.52;;
80985;SDS011;70451;51.226;6.412;2023-07-13T14:03:23;6.00;;;2.13;;
80985;SDS011;70451;51.226;6.412;2023-07-13T14:05:39;3.35;;;1.73;;
80985;SDS011;70451;51.226;6.412;2023-07-13T14:07:55;3.97;;;1.73;;
80985;SDS011;70451;51.226;6.412;2023-07-13T14:10:13;2.25;;;1.70;;
80985;SDS011;70451;51.226;6.412;2023-07-13T14:12:30;2.50;;;1.63;;
80985;SDS011;70451;51.226;6.412;2023-07-13T14:14:46;4.05;;;2.17;;
80985;SDS011;70451;51.226;6.412;2023-07-13T14:17:01;2.92;;;1.73;;
80985;SDS011;70451;51.226;6.412;2023-07-13T14:19:16;2.85;;;1.63;;
80985;SDS011;70451;51.226;6.412;2023-07-13T14:21:32;1.73;;;1.63;;
80985;SDS011;70451;51.226;6.412;2023-07-13T14:23:47;3.15;;;1.48;;
80985;SDS011;70451;51.226;6.412;2023-07-13T14:26:07;4.85;;;1.73;;
80985;SDS011;70451;51.226;6.412;2023-07-13T14:28:26;3.20;;;1.60;;